Terminal Aerodrome Forecast
Issued by NWS Missoula, MT

Home | Current Version | Previous Version | Text Only | Print | Product List | Glossary On
Versions: 1 2 3 4 5 6 7 8 9 10 11 12 13
000
FTUS45 KMSO 210916 AAA
TAFBTM
TAF AMD
KBTM 210916Z 2109/2206 18008KT P6SM VCSH SCT030 BKN040 OVC060
     FM211200 24008KT 5SM -SN BKN030 OVC040
     FM211700 27020G30KT P6SM VCSH BKN030 OVC040
     FM212000 29028G38KT P6SM VCSH BKN050
     FM220000 30010KT P6SM OVC050=

USA.gov is the U.S. government's official web portal to all federal, state and local government web resources and services.